createdAt,value
2019-03-03T00:01:06.201Z,8.70
2019-03-03T00:03:35.297Z,8.60
2019-03-03T00:06:04.469Z,8.60
2019-03-03T00:08:33.829Z,8.60
2019-03-03T00:11:03.515Z,8.60
2019-03-03T00:13:32.570Z,8.60
2019-03-03T00:16:01.677Z,8.70
2019-03-03T00:18:31.037Z,8.70
2019-03-03T00:21:00.474Z,8.70
2019-03-03T00:23:29.549Z,8.70
2019-03-03T00:25:58.715Z,8.80
2019-03-03T00:28:27.829Z,8.80
2019-03-03T00:30:56.949Z,8.80
2019-03-03T00:33:26.057Z,8.80
2019-03-03T00:35:55.538Z,8.80
2019-03-03T00:38:46.632Z,8.80
2019-03-03T00:41:40.899Z,8.80
2019-03-03T00:44:27.962Z,8.80
2019-03-03T00:47:15.326Z,8.80
2019-03-03T00:50:02.333Z,8.80
2019-03-03T00:52:38.305Z,8.80
2019-03-03T00:55:23.833Z,8.80
2019-03-03T00:58:14.808Z,8.80
2019-03-03T01:00:51.127Z,8.80
2019-03-03T01:03:33.406Z,8.70
2019-03-03T01:06:13.563Z,8.70
2019-03-03T01:08:58.911Z,8.70
2019-03-03T01:11:50.112Z,8.70
2019-03-03T01:14:40.769Z,8.70
2019-03-03T01:17:18.837Z,8.70
2019-03-03T01:20:05.573Z,8.70
2019-03-03T01:23:04.282Z,8.70
2019-03-03T01:25:33.353Z,8.70
2019-03-03T01:28:02.617Z,8.80
2019-03-03T01:30:31.706Z,8.80
2019-03-03T01:33:00.770Z,8.80
2019-03-03T01:35:29.875Z,8.80
2019-03-03T01:37:58.981Z,8.70
2019-03-03T01:40:28.086Z,8.70
2019-03-03T01:42:57.165Z,8.70
2019-03-03T01:45:26.276Z,8.70
2019-03-03T01:47:55.549Z,8.70
2019-03-03T01:50:24.618Z,8.70
2019-03-03T01:52:53.741Z,8.70
2019-03-03T01:55:22.846Z,8.70
2019-03-03T01:57:52.278Z,8.70
2019-03-03T02:00:26.002Z,8.70
2019-03-03T02:02:56.155Z,8.70
2019-03-03T02:05:25.429Z,8.70
2019-03-03T02:07:54.738Z,8.70
2019-03-03T02:10:24.621Z,8.70
2019-03-03T02:12:53.920Z,8.70
2019-03-03T02:15:23.469Z,8.60
2019-03-03T02:17:52.821Z,8.60
2019-03-03T02:20:21.909Z,8.60
2019-03-03T02:22:50.977Z,8.60
2019-03-03T02:25:20.145Z,8.60
2019-03-03T02:27:49.914Z,8.60
2019-03-03T02:30:20.101Z,8.60
2019-03-03T02:32:49.291Z,8.70
2019-03-03T02:35:18.548Z,8.70
2019-03-03T02:37:47.677Z,8.70
2019-03-03T02:40:17.646Z,8.70
2019-03-03T02:42:46.739Z,8.70
2019-03-03T02:45:16.296Z,8.70
2019-03-03T02:47:45.385Z,8.70
2019-03-03T02:50:14.493Z,8.70
2019-03-03T02:52:43.648Z,8.70
2019-03-03T02:55:13.163Z,8.70
2019-03-03T02:57:43.263Z,8.70
2019-03-03T03:00:18.257Z,8.70
2019-03-03T03:02:51.553Z,8.70
2019-03-03T03:05:42.409Z,8.70
2019-03-03T03:08:14.878Z,8.80
2019-03-03T03:11:17.963Z,8.70
2019-03-03T03:14:04.741Z,8.70
2019-03-03T03:16:42.692Z,8.70
2019-03-03T03:19:39.546Z,8.70
2019-03-03T03:22:15.299Z,8.70
2019-03-03T03:24:49.338Z,8.70
2019-03-03T03:27:28.894Z,8.70
2019-03-03T03:30:09.428Z,8.70
2019-03-03T03:32:53.887Z,8.70
2019-03-03T03:35:37.347Z,8.70
2019-03-03T03:38:21.013Z,8.70
2019-03-03T03:41:10.751Z,8.70
2019-03-03T03:44:11.042Z,8.80
2019-03-03T03:46:59.229Z,8.80
2019-03-03T03:49:45.984Z,8.80
2019-03-03T03:52:37.255Z,8.80
2019-03-03T03:55:18.245Z,8.80
2019-03-03T03:58:15.168Z,8.80
2019-03-03T04:01:02.246Z,8.80
2019-03-03T04:03:40.520Z,8.80
2019-03-03T04:06:25.316Z,8.80
2019-03-03T04:09:01.706Z,8.90
2019-03-03T04:11:54.794Z,8.80
2019-03-03T04:14:51.573Z,8.80
2019-03-03T04:17:38.343Z,8.80
2019-03-03T04:20:29.413Z,8.80
2019-03-03T04:23:20.354Z,8.80
2019-03-03T04:26:13.038Z,8.80
2019-03-03T04:28:49.538Z,8.80
2019-03-03T04:31:37.747Z,8.80
2019-03-03T04:34:18.089Z,8.90
2019-03-03T04:37:14.880Z,8.90
2019-03-03T04:39:53.626Z,8.90
2019-03-03T04:42:44.577Z,8.90
2019-03-03T04:45:31.637Z,8.90
2019-03-03T04:48:34.774Z,8.90
2019-03-03T04:51:16.005Z,9.00
2019-03-03T04:54:06.787Z,9.00
2019-03-03T04:56:57.957Z,9.00
2019-03-03T04:59:38.168Z,9.00
2019-03-03T05:02:25.684Z,9.00
2019-03-03T05:05:00.539Z,9.00
2019-03-03T05:07:54.628Z,9.00
2019-03-03T05:10:34.694Z,9.00
2019-03-03T05:13:24.984Z,9.00
2019-03-03T05:16:13.397Z,9.00
2019-03-03T05:19:04.084Z,9.00
2019-03-03T05:21:33.301Z,8.90
2019-03-03T05:24:02.495Z,8.90
2019-03-03T05:26:31.547Z,8.90
2019-03-03T05:29:00.648Z,8.90
2019-03-03T05:31:29.756Z,8.90
2019-03-03T05:33:58.866Z,8.90
2019-03-03T05:36:27.933Z,8.90
2019-03-03T05:38:57.018Z,8.80
2019-03-03T05:41:26.473Z,8.90
2019-03-03T05:43:55.571Z,8.90
2019-03-03T05:46:24.715Z,8.90
2019-03-03T05:48:53.793Z,8.90
2019-03-03T05:51:22.936Z,8.90
2019-03-03T05:53:52.014Z,8.90
2019-03-03T05:56:21.126Z,9.00
2019-03-03T05:58:50.205Z,9.00
2019-03-03T06:01:19.200Z,9.00
2019-03-03T06:03:48.293Z,9.00
2019-03-03T06:06:17.336Z,9.00
2019-03-03T06:08:46.504Z,9.00
2019-03-03T06:11:15.483Z,9.10
2019-03-03T06:13:44.600Z,9.10
2019-03-03T06:16:13.952Z,9.10
2019-03-03T06:18:43.024Z,9.10
2019-03-03T06:21:13.017Z,9.10
2019-03-03T06:23:42.273Z,9.10
2019-03-03T06:26:12.379Z,9.10
2019-03-03T06:29:00.558Z,9.10
2019-03-03T06:31:30.083Z,9.10
2019-03-03T06:33:59.409Z,9.10
2019-03-03T06:36:28.802Z,9.10
2019-03-03T06:38:57.968Z,9.10
2019-03-03T06:41:27.093Z,9.10
2019-03-03T06:43:56.263Z,9.20
2019-03-03T06:46:25.382Z,9.10
2019-03-03T06:48:55.085Z,9.20
2019-03-03T06:51:24.265Z,9.10
2019-03-03T06:53:53.451Z,9.20
2019-03-03T06:56:22.582Z,9.10
2019-03-03T06:58:52.092Z,9.20
2019-03-03T07:01:21.153Z,9.20
2019-03-03T07:03:50.239Z,9.20
2019-03-03T07:06:19.319Z,9.20
2019-03-03T07:08:48.400Z,9.20
2019-03-03T07:11:17.543Z,9.20
2019-03-03T07:13:46.629Z,9.20
2019-03-03T07:16:15.733Z,9.20
2019-03-03T07:18:46.077Z,9.20
2019-03-03T07:21:15.209Z,9.30
2019-03-03T07:23:44.280Z,9.20
2019-03-03T07:26:13.487Z,9.30
2019-03-03T07:28:42.573Z,9.30
2019-03-03T07:31:11.634Z,9.30
2019-03-03T07:33:44.620Z,9.30
2019-03-03T07:36:13.721Z,9.30
2019-03-03T07:38:42.973Z,9.40
2019-03-03T07:41:12.194Z,9.50
2019-03-03T07:43:41.301Z,9.50
2019-03-03T07:46:10.398Z,9.50
2019-03-03T07:48:39.502Z,9.50
2019-03-03T07:51:08.598Z,9.40
2019-03-03T07:53:37.697Z,9.50
2019-03-03T07:56:06.753Z,9.40
2019-03-03T07:58:35.878Z,9.40
2019-03-03T08:01:04.961Z,9.40
2019-03-03T08:03:34.060Z,9.50
2019-03-03T08:06:03.241Z,9.40
2019-03-03T08:08:32.341Z,9.40
2019-03-03T08:11:01.449Z,9.40
2019-03-03T08:13:30.575Z,9.50
2019-03-03T08:15:59.688Z,9.50
2019-03-03T08:18:28.820Z,9.50
2019-03-03T08:20:58.162Z,9.50
2019-03-03T08:23:27.230Z,9.50
2019-03-03T08:25:56.451Z,9.60
2019-03-03T08:28:25.543Z,9.70
2019-03-03T08:30:54.764Z,9.70
2019-03-03T08:33:24.220Z,9.80
2019-03-03T08:35:53.413Z,9.80
2019-03-03T08:38:22.448Z,9.80
2019-03-03T08:40:51.783Z,9.90
2019-03-03T08:43:29.889Z,9.90
2019-03-03T08:46:26.825Z,9.90
2019-03-03T08:49:04.426Z,10.00
2019-03-03T08:51:51.775Z,10.00
2019-03-03T08:54:51.938Z,9.90
2019-03-03T08:57:55.075Z,10.00
2019-03-03T09:00:52.318Z,10.00
2019-03-03T09:03:40.417Z,10.00
2019-03-03T09:06:27.226Z,10.00
2019-03-03T09:09:13.972Z,10.00
2019-03-03T09:12:01.231Z,10.00
2019-03-03T09:14:40.661Z,10.00
2019-03-03T09:17:18.676Z,10.10
2019-03-03T09:20:09.696Z,10.10
2019-03-03T09:23:04.173Z,10.10
2019-03-03T09:25:44.590Z,10.20
2019-03-03T09:28:38.680Z,10.20
2019-03-03T09:31:29.368Z,10.20
2019-03-03T09:34:15.924Z,10.20
2019-03-03T09:37:02.704Z,10.20
2019-03-03T09:39:45.512Z,10.20
2019-03-03T09:42:39.572Z,10.20
2019-03-03T09:45:23.781Z,10.30
2019-03-03T09:48:11.933Z,10.30
2019-03-03T09:51:02.743Z,10.30
2019-03-03T09:53:38.284Z,10.30
2019-03-03T09:56:44.554Z,10.40
2019-03-03T09:59:51.181Z,10.50
2019-03-03T10:02:41.284Z,10.50
2019-03-03T10:05:25.226Z,10.70
2019-03-03T10:08:13.745Z,10.70
2019-03-03T10:11:11.236Z,10.80
2019-03-03T10:13:58.106Z,10.90
2019-03-03T10:16:36.691Z,10.90
2019-03-03T10:19:30.946Z,10.90
2019-03-03T10:22:15.874Z,10.90
2019-03-03T10:25:09.888Z,10.90
2019-03-03T10:28:10.251Z,10.80
2019-03-03T10:31:01.401Z,10.90
2019-03-03T10:33:41.428Z,10.80
2019-03-03T10:36:28.468Z,10.80
2019-03-03T10:39:19.449Z,10.90
2019-03-03T10:42:07.134Z,10.90
2019-03-03T10:44:44.996Z,11.00
2019-03-03T10:47:23.997Z,11.00
2019-03-03T10:50:06.985Z,11.00
2019-03-03T10:52:44.273Z,11.00
2019-03-03T10:55:19.785Z,11.00
2019-03-03T10:58:09.254Z,11.10
2019-03-03T11:01:03.010Z,11.10
2019-03-03T11:03:58.015Z,11.10
2019-03-03T11:06:44.844Z,11.10
2019-03-03T11:09:28.989Z,11.10
2019-03-03T11:12:11.522Z,11.10
2019-03-03T11:14:53.172Z,11.20
2019-03-03T11:17:44.440Z,11.20
2019-03-03T11:20:33.005Z,11.30
2019-03-03T11:23:23.942Z,11.50
2019-03-03T11:26:03.609Z,11.50
2019-03-03T11:28:48.249Z,11.60
2019-03-03T11:31:33.965Z,11.70
2019-03-03T11:34:40.386Z,11.90
2019-03-03T11:37:28.546Z,12.00
2019-03-03T11:40:12.247Z,12.20
2019-03-03T11:42:52.373Z,12.40
2019-03-03T11:45:52.793Z,12.60
2019-03-03T11:48:42.262Z,12.80
2019-03-03T11:51:33.262Z,12.80
2019-03-03T11:54:08.585Z,12.60
2019-03-03T11:56:55.374Z,12.40
2019-03-03T11:59:52.705Z,12.20
2019-03-03T12:02:42.525Z,12.00
2019-03-03T12:05:36.925Z,11.90
2019-03-03T12:08:30.825Z,12.00
2019-03-03T12:11:14.984Z,11.80
2019-03-03T12:13:59.650Z,11.90
2019-03-03T12:16:45.678Z,11.80
2019-03-03T12:19:20.795Z,11.80
2019-03-03T12:22:18.257Z,11.70
2019-03-03T12:24:55.846Z,11.80
2019-03-03T12:27:46.878Z,11.80
2019-03-03T12:30:44.302Z,11.90
2019-03-03T12:33:35.429Z,12.00
2019-03-03T12:36:20.093Z,12.10
2019-03-03T12:38:54.405Z,12.20
2019-03-03T12:41:39.700Z,12.10
2019-03-03T12:44:39.920Z,12.10
2019-03-03T12:47:26.497Z,11.90
2019-03-03T12:50:29.658Z,11.80
2019-03-03T12:53:14.662Z,11.70
2019-03-03T12:55:52.780Z,11.60
2019-03-03T12:58:33.569Z,11.60
2019-03-03T13:01:21.201Z,11.60
2019-03-03T13:04:07.737Z,11.50
2019-03-03T13:07:07.722Z,11.50
2019-03-03T13:09:46.452Z,11.40
2019-03-03T13:12:52.487Z,11.40
2019-03-03T13:15:37.714Z,11.40
2019-03-03T13:18:25.817Z,11.40
2019-03-03T13:21:14.003Z,11.50
2019-03-03T13:24:02.292Z,11.60
2019-03-03T13:26:47.042Z,11.60
2019-03-03T13:29:32.365Z,11.60
2019-03-03T13:32:20.497Z,11.60
2019-03-03T13:35:11.333Z,11.70
2019-03-03T13:37:54.760Z,11.80
2019-03-03T13:40:41.537Z,11.80
2019-03-03T13:43:10.655Z,11.90
2019-03-03T13:45:39.708Z,12.00
2019-03-03T13:48:08.896Z,12.00
2019-03-03T13:50:38.078Z,12.00
2019-03-03T13:53:07.563Z,11.90
2019-03-03T13:55:36.711Z,11.80
2019-03-03T13:58:05.932Z,11.80
2019-03-03T14:00:35.392Z,11.70
2019-03-03T14:03:04.675Z,11.70
2019-03-03T14:05:33.780Z,11.70
2019-03-03T14:08:03.465Z,11.60
2019-03-03T14:10:35.998Z,11.60
2019-03-03T14:13:06.744Z,11.60
2019-03-03T14:15:36.278Z,11.60
2019-03-03T14:18:07.050Z,11.50
2019-03-03T14:20:36.218Z,11.50
2019-03-03T14:23:05.449Z,11.60
2019-03-03T14:25:34.774Z,11.60
2019-03-03T14:28:03.955Z,11.70
2019-03-03T14:30:33.190Z,11.70
2019-03-03T14:33:02.373Z,11.80
2019-03-03T14:35:31.575Z,11.90
2019-03-03T14:38:00.744Z,11.90
2019-03-03T14:40:29.867Z,11.90
2019-03-03T14:42:58.942Z,11.90
2019-03-03T14:45:28.203Z,11.90
2019-03-03T14:47:57.717Z,11.80
2019-03-03T14:50:26.849Z,11.80
2019-03-03T14:52:56.188Z,11.80
2019-03-03T14:55:25.414Z,11.90
2019-03-03T14:57:54.532Z,12.00
2019-03-03T15:00:31.988Z,12.10
2019-03-03T15:03:02.953Z,12.10
2019-03-03T15:05:32.195Z,12.10
2019-03-03T15:08:01.456Z,12.10
2019-03-03T15:10:30.797Z,12.20
2019-03-03T15:13:00.075Z,12.10
2019-03-03T15:15:30.083Z,12.00
2019-03-03T15:17:59.430Z,12.00
2019-03-03T15:20:29.325Z,11.90
2019-03-03T15:22:58.457Z,11.80
2019-03-03T15:25:27.859Z,11.70
2019-03-03T15:27:57.305Z,11.70
2019-03-03T15:30:26.502Z,11.60
2019-03-03T15:32:55.876Z,11.50
2019-03-03T15:35:25.023Z,11.40
2019-03-03T15:37:54.446Z,11.30
2019-03-03T15:40:23.631Z,11.20
2019-03-03T15:42:52.893Z,11.10
2019-03-03T15:45:23.524Z,11.00
2019-03-03T15:47:52.681Z,10.90
2019-03-03T15:50:22.164Z,10.90
2019-03-03T15:52:51.410Z,10.90
2019-03-03T15:55:20.678Z,10.80
2019-03-03T15:57:49.849Z,10.80
2019-03-03T16:00:21.124Z,10.70
2019-03-03T16:02:50.509Z,10.70
2019-03-03T16:05:20.333Z,10.70
2019-03-03T16:07:49.537Z,10.70
2019-03-03T16:10:18.716Z,10.70
2019-03-03T16:12:47.902Z,10.80
2019-03-03T16:15:17.078Z,10.80
2019-03-03T16:17:46.176Z,10.80
2019-03-03T16:20:17.628Z,10.80
2019-03-03T16:22:46.894Z,10.90
2019-03-03T16:25:17.032Z,10.90
2019-03-03T16:27:46.193Z,10.90
2019-03-03T16:30:17.943Z,10.90
2019-03-03T16:32:47.318Z,11.00
2019-03-03T16:35:16.698Z,10.90
2019-03-03T16:37:45.866Z,10.90
2019-03-03T16:40:16.923Z,10.90
2019-03-03T16:42:46.395Z,10.90
2019-03-03T16:45:15.998Z,10.90
2019-03-03T16:47:45.225Z,10.90
2019-03-03T16:50:15.878Z,10.90
2019-03-03T16:52:45.207Z,10.90
2019-03-03T16:55:14.731Z,10.90
2019-03-03T16:57:44.158Z,10.90
2019-03-03T17:00:15.228Z,10.90
2019-03-03T17:02:44.455Z,10.90
2019-03-03T17:05:14.450Z,10.90
2019-03-03T17:07:44.485Z,10.90
2019-03-03T17:10:13.845Z,10.90
2019-03-03T17:12:42.957Z,10.90
2019-03-03T17:15:14.981Z,10.90
2019-03-03T17:17:44.092Z,10.90
2019-03-03T17:20:13.332Z,10.90
2019-03-03T17:22:42.496Z,10.90
2019-03-03T17:25:13.964Z,10.90
2019-03-03T17:27:43.364Z,10.90
2019-03-03T17:30:15.389Z,10.90
2019-03-03T17:32:44.488Z,11.00
2019-03-03T17:35:13.785Z,10.90
2019-03-03T17:37:42.913Z,10.90
2019-03-03T17:40:14.409Z,10.90
2019-03-03T17:42:43.706Z,10.90
2019-03-03T17:45:14.560Z,10.90
2019-03-03T17:54:52.484Z,20.50
2019-03-03T17:57:20.664Z,21.90
2019-03-03T17:59:48.963Z,23.00
2019-03-03T18:06:38.390Z,23.60
2019-03-03T18:08:59.461Z,23.30
2019-03-03T18:11:28.589Z,23.10
2019-03-03T18:13:57.683Z,23.00
2019-03-03T18:16:26.781Z,23.00
2019-03-03T18:18:55.882Z,22.90
2019-03-03T18:21:24.981Z,22.90
2019-03-03T18:23:54.154Z,22.90
2019-03-03T18:26:23.342Z,22.90
2019-03-03T18:28:52.415Z,22.90
2019-03-03T18:31:21.559Z,22.90
2019-03-03T18:33:50.631Z,22.90
2019-03-03T18:36:19.714Z,22.90
2019-03-03T18:38:48.873Z,23.00
2019-03-03T18:41:18.022Z,23.00
2019-03-03T18:43:48.321Z,23.00
2019-03-03T18:46:18.464Z,23.00
2019-03-03T18:48:47.642Z,23.10
2019-03-03T18:51:16.872Z,23.00
2019-03-03T18:53:46.009Z,23.00
2019-03-03T18:56:15.158Z,23.00
2019-03-03T18:58:44.247Z,22.90
2019-03-03T19:01:13.345Z,22.90
